Time;durP1;ratioP1;P1;durP2;ratioP2;P2;SDS_P1;SDS_P2;PMS_P1;PMS_P2;Temp;Humidity;BMP_temperature;BMP_pressure;BME280_temperature;BME280_humidity;BME280_pressure;Samples;Min_cycle;Max_cycle;Signal;HPM_P1;HPM_P2
2023/04/20 00:00:29;;;;;;;4.43;1.17;;;8.60;99.90;;;;;;5028818;28;20041;-63
2023/04/20 00:02:55;;;;;;;6.72;1.05;;;8.70;99.90;;;;;;5016371;28;20069;-63
2023/04/20 00:05:22;;;;;;;6.35;1.20;;;8.60;99.90;;;;;;5036925;28;20037;-63
2023/04/20 00:07:48;;;;;;;4.85;1.50;;;8.60;99.90;;;;;;5003534;28;20068;-63
2023/04/20 00:10:15;;;;;;;9.30;1.35;;;8.60;99.90;;;;;;5019053;28;20713;-62
2023/04/20 00:12:41;;;;;;;5.85;1.20;;;8.50;99.90;;;;;;5011272;28;20293;-63
2023/04/20 00:15:08;;;;;;;4.03;1.20;;;8.50;99.90;;;;;;5033804;28;20070;-63
2023/04/20 00:17:33;;;;;;;6.25;1.35;;;8.60;99.90;;;;;;4996209;28;20478;-63
2023/04/20 00:19:59;;;;;;;5.43;1.40;;;8.50;99.90;;;;;;5020557;28;20060;-62
2023/04/20 00:22:27;;;;;;;4.85;1.05;;;8.60;99.90;;;;;;5017524;28;20292;-62
2023/04/20 00:24:52;;;;;;;4.90;1.38;;;8.60;99.90;;;;;;5011548;28;20586;-63
2023/04/20 00:27:18;;;;;;;3.45;1.15;;;8.60;99.90;;;;;;5016567;28;20344;-65
2023/04/20 00:29:44;;;;;;;3.03;1.00;;;8.60;99.90;;;;;;5029184;28;20029;-63
2023/04/20 00:32:10;;;;;;;3.33;0.90;;;8.60;99.90;;;;;;5014181;28;20518;-62
2023/04/20 00:34:35;;;;;;;5.15;1.20;;;8.60;99.90;;;;;;5018237;28;20087;-63
2023/04/20 00:37:01;;;;;;;3.17;0.98;;;8.50;99.90;;;;;;5010421;28;20045;-63
2023/04/20 00:39:27;;;;;;;4.00;1.02;;;8.50;99.90;;;;;;5017665;28;20045;-62
2023/04/20 00:41:52;;;;;;;6.00;1.05;;;8.40;99.90;;;;;;5012226;28;20183;-63
2023/04/20 00:44:18;;;;;;;4.93;1.38;;;8.40;99.90;;;;;;5020080;28;20033;-64
2023/04/20 00:46:44;;;;;;;3.45;0.80;;;8.30;99.90;;;;;;5026877;28;20459;-63
2023/04/20 00:49:10;;;;;;;4.72;1.15;;;8.30;99.90;;;;;;5020052;28;20036;-62
2023/04/20 00:51:36;;;;;;;6.07;1.00;;;8.30;99.90;;;;;;5017625;28;20043;-65
2023/04/20 00:54:03;;;;;;;6.93;1.98;;;8.40;99.90;;;;;;5023880;28;20345;-64
2023/04/20 00:56:29;;;;;;;3.30;0.90;;;8.50;99.90;;;;;;5036179;28;20084;-64
2023/04/20 00:58:55;;;;;;;3.47;0.82;;;8.50;99.90;;;;;;5011289;28;20128;-63
2023/04/20 01:01:20;;;;;;;2.70;0.88;;;8.60;99.90;;;;;;5005898;28;20064;-63
2023/04/20 01:03:46;;;;;;;4.32;1.10;;;8.60;99.90;;;;;;5015989;28;20045;-63
2023/04/20 01:06:13;;;;;;;6.82;1.05;;;8.60;99.90;;;;;;5020501;28;20389;-63
2023/04/20 01:08:50;;;;;;;4.97;0.77;;;8.60;99.90;;;;;;5013246;28;20047;-64
2023/04/20 01:11:16;;;;;;;5.53;0.88;;;8.60;99.90;;;;;;5036563;28;20451;-64
2023/04/20 01:13:42;;;;;;;4.25;1.05;;;8.50;99.90;;;;;;5000556;28;20041;-64
2023/04/20 01:16:08;;;;;;;5.88;0.70;;;8.50;99.90;;;;;;5048771;28;20755;-64
2023/04/20 01:18:45;;;;;;;4.35;1.00;;;8.40;99.90;;;;;;4988189;28;20116;-62
2023/04/20 01:21:16;;;;;;;10.77;1.20;;;8.40;99.90;;;;;;5022142;28;20135;-64
2023/04/20 01:23:42;;;;;;;5.10;1.35;;;8.30;99.90;;;;;;5007105;28;20411;-65
2023/04/20 01:26:10;;;;;;;9.02;1.10;;;8.30;99.90;;;;;;5020597;28;20077;-63
2023/04/20 01:28:36;;;;;;;2.65;0.80;;;8.30;99.90;;;;;;5020014;28;20046;-63
2023/04/20 01:31:06;;;;;;;3.42;0.90;;;8.30;99.90;;;;;;5019605;28;20057;-64
2023/04/20 01:33:32;;;;;;;2.40;0.70;;;8.30;99.90;;;;;;5015527;28;20041;-64
2023/04/20 01:35:58;;;;;;;7.72;0.90;;;8.30;99.90;;;;;;5020354;28;20092;-63
2023/04/20 01:38:25;;;;;;;4.40;1.17;;;8.30;99.90;;;;;;5020434;28;20132;-64
2023/04/20 01:40:51;;;;;;;8.30;1.20;;;8.20;99.90;;;;;;5037016;28;20056;-63
2023/04/20 01:43:18;;;;;;;3.35;0.90;;;8.20;99.90;;;;;;5028903;28;20041;-64
2023/04/20 01:45:44;;;;;;;5.88;1.00;;;8.20;99.90;;;;;;5016947;28;20538;-63
2023/04/20 01:48:10;;;;;;;6.57;1.00;;;8.10;99.90;;;;;;5006407;28;20047;-64
2023/04/20 01:50:35;;;;;;;6.57;1.42;;;8.10;99.90;;;;;;5005821;28;20038;-62
2023/04/20 01:53:01;;;;;;;9.32;1.50;;;8.10;99.90;;;;;;5007743;28;20041;-65
2023/04/20 01:55:27;;;;;;;5.53;1.20;;;8.10;99.90;;;;;;4998681;28;20584;-63
2023/04/20 01:57:52;;;;;;;7.85;1.17;;;8.00;99.90;;;;;;5020710;28;20073;-64
2023/04/20 02:00:18;;;;;;;7.55;1.05;;;8.00;99.90;;;;;;5016253;28;20040;-64
2023/04/20 02:02:45;;;;;;;5.45;1.55;;;8.00;99.90;;;;;;5005161;28;20041;-63
2023/04/20 02:05:10;;;;;;;6.57;1.40;;;8.00;99.90;;;;;;5018866;28;20048;-64
2023/04/20 02:07:36;;;;;;;5.45;1.30;;;8.00;99.90;;;;;;5028660;28;20313;-63
2023/04/20 02:10:03;;;;;;;5.05;0.90;;;8.00;99.90;;;;;;5012047;28;20143;-64
2023/04/20 02:12:29;;;;;;;3.80;0.95;;;8.10;99.90;;;;;;5010637;28;20562;-64
2023/04/20 02:14:54;;;;;;;4.03;1.00;;;8.00;99.90;;;;;;5019414;28;20239;-65
2023/04/20 02:17:20;;;;;;;3.95;1.00;;;8.00;99.90;;;;;;5029692;28;20164;-65
2023/04/20 02:19:46;;;;;;;4.40;1.00;;;8.10;99.90;;;;;;5034064;28;20037;-64
2023/04/20 02:22:12;;;;;;;4.80;1.23;;;8.10;99.90;;;;;;5020113;28;20041;-63
2023/04/20 02:24:38;;;;;;;5.95;1.52;;;8.10;99.90;;;;;;5019556;28;20039;-63
2023/04/20 02:27:04;;;;;;;4.28;1.15;;;8.20;99.90;;;;;;5018732;28;20029;-63
2023/04/20 02:29:30;;;;;;;8.48;1.45;;;8.20;99.90;;;;;;5018352;28;20997;-64
2023/04/20 02:31:56;;;;;;;5.30;1.10;;;8.30;99.90;;;;;;5021117;28;20486;-65
2023/04/20 02:34:22;;;;;;;6.40;1.30;;;8.30;99.90;;;;;;4998857;28;20257;-63
2023/04/20 02:36:48;;;;;;;3.55;0.90;;;8.40;99.90;;;;;;5018444;28;20515;-64
2023/04/20 02:39:13;;;;;;;5.15;0.98;;;8.40;99.90;;;;;;5009804;28;20200;-62
2023/04/20 02:41:39;;;;;;;3.90;1.00;;;8.50;99.90;;;;;;5017363;28;20334;-63
2023/04/20 02:44:05;;;;;;;9.00;1.30;;;8.50;99.90;;;;;;5015772;28;20483;-63
2023/04/20 02:46:31;;;;;;;3.90;1.10;;;8.50;99.90;;;;;;5017569;28;20507;-63
2023/04/20 02:48:56;;;;;;;6.82;1.15;;;8.50;99.90;;;;;;5010729;28;20082;-64
2023/04/20 02:51:22;;;;;;;5.13;0.93;;;8.50;99.90;;;;;;5009059;28;20258;-63
2023/04/20 02:53:48;;;;;;;4.72;1.20;;;8.50;99.90;;;;;;5019850;28;20276;-64
2023/04/20 02:56:14;;;;;;;7.13;1.35;;;8.50;99.90;;;;;;5017694;28;20069;-63
2023/04/20 02:58:39;;;;;;;6.32;1.42;;;8.50;99.90;;;;;;5010734;28;20045;-63
2023/04/20 03:01:06;;;;;;;6.47;1.10;;;8.50;99.90;;;;;;5027140;28;20048;-63
2023/04/20 03:03:31;;;;;;;6.25;1.23;;;8.50;99.90;;;;;;5016902;28;20133;-63
2023/04/20 03:05:57;;;;;;;4.28;1.27;;;8.50;99.90;;;;;;5017024;28;20095;-64
2023/04/20 03:08:23;;;;;;;4.07;1.10;;;8.50;99.90;;;;;;5016920;28;20112;-63
2023/04/20 03:10:49;;;;;;;3.08;1.20;;;8.50;99.90;;;;;;5016451;28;20411;-62
2023/04/20 03:13:14;;;;;;;5.10;1.23;;;8.50;99.90;;;;;;5002079;28;20402;-64
2023/04/20 03:15:41;;;;;;;5.15;1.13;;;8.50;99.90;;;;;;5016300;28;20053;-64
2023/04/20 03:18:07;;;;;;;4.07;1.00;;;8.50;99.90;;;;;;5012357;28;20861;-64
2023/04/20 03:20:33;;;;;;;5.13;0.90;;;8.50;99.90;;;;;;5025665;28;20057;-64
2023/04/20 03:22:58;;;;;;;4.20;0.75;;;8.50;99.90;;;;;;5021008;28;20532;-63
2023/04/20 03:25:24;;;;;;;6.00;0.98;;;8.50;99.90;;;;;;5001602;28;20470;-62
2023/04/20 03:27:50;;;;;;;4.18;1.13;;;8.50;99.90;;;;;;4999436;28;20045;-62
2023/04/20 03:30:15;;;;;;;3.17;0.88;;;8.50;99.90;;;;;;5009591;28;20233;-63
2023/04/20 03:32:41;;;;;;;4.10;0.77;;;8.50;99.90;;;;;;5013666;28;20111;-62
2023/04/20 03:35:07;;;;;;;3.05;0.43;;;8.50;57.50;;;;;;5014920;28;20660;-63
2023/04/20 03:37:36;;;;;;;2.80;0.52;;;8.50;1.00;;;;;;5017398;28;20049;-63
2023/04/20 03:40:02;;;;;;;3.05;0.80;;;8.50;1.00;;;;;;5019127;28;20040;-63
2023/04/20 03:42:29;;;;;;;2.30;0.70;;;8.50;1.00;;;;;;5033962;28;20139;-63
2023/04/20 03:44:55;;;;;;;3.25;0.73;;;8.50;4.90;;;;;;5018879;28;20041;-63
2023/04/20 03:47:20;;;;;;;2.88;0.75;;;8.50;1.00;;;;;;5008930;28;20029;-62
2023/04/20 03:49:46;;;;;;;1.95;0.45;;;8.50;1.00;;;;;;5008654;28;20039;-63
2023/04/20 03:52:12;;;;;;;4.72;0.55;;;8.50;1.00;;;;;;5017296;28;20041;-64
2023/04/20 03:54:39;;;;;;;3.28;0.65;;;8.50;99.90;;;;;;4997995;28;20060;-64
2023/04/20 03:57:05;;;;;;;2.35;0.70;;;8.50;1.00;;;;;;5018542;28;20128;-64
2023/04/20 03:59:30;;;;;;;3.15;0.80;;;8.40;1.00;;;;;;5015304;28;20209;-62
2023/04/20 04:01:57;;;;;;;4.10;0.73;;;8.40;1.00;;;;;;5015276;28;20060;-63
2023/04/20 04:04:22;;;;;;;3.22;0.60;;;8.40;1.00;;;;;;5015151;28;20578;-63
2023/04/20 04:06:48;;;;;;;2.17;0.38;;;8.30;99.90;;;;;;5016848;28;20042;-63
2023/04/20 04:09:15;;;;;;;2.05;0.65;;;8.30;99.90;;;;;;5015728;28;20095;-63
2023/04/20 04:11:40;;;;;;;2.55;0.88;;;8.30;99.90;;;;;;5014510;28;20412;-63
2023/04/20 04:14:06;;;;;;;1.80;0.60;;;8.30;99.90;;;;;;5015828;28;20147;-63
2023/04/20 04:16:32;;;;;;;3.15;0.73;;;8.30;99.90;;;;;;5019616;28;20048;-63
2023/04/20 04:18:58;;;;;;;1.98;0.60;;;8.20;1.00;;;;;;5008726;28;20570;-64
2023/04/20 04:21:24;;;;;;;1.42;0.50;;;8.20;1.00;;;;;;5032378;28;20080;-64
2023/04/20 04:23:49;;;;;;;1.70;0.60;;;8.20;99.90;;;;;;5010464;28;20143;-64
2023/04/20 04:26:17;;;;;;;2.53;0.40;;;8.20;99.90;;;;;;4994480;28;21359;-63
2023/04/20 04:28:44;;;;;;;3.33;0.60;;;8.20;1.00;;;;;;5017277;28;20083;-64
2023/04/20 04:31:11;;;;;;;1.63;0.45;;;8.20;99.90;;;;;;5014157;28;20049;-63
2023/04/20 04:33:37;;;;;;;4.47;0.52;;;8.20;99.90;;;;;;5016983;28;20082;-64
2023/04/20 04:36:04;;;;;;;2.88;0.50;;;8.20;99.90;;;;;;5022175;28;20049;-63
2023/04/20 04:38:32;;;;;;;2.83;0.50;;;8.20;99.90;;;;;;5040718;28;20125;-63
2023/04/20 04:40:57;;;;;;;2.17;0.40;;;8.20;99.90;;;;;;5006391;28;20238;-64
2023/04/20 04:43:24;;;;;;;1.73;0.40;;;8.10;99.90;;;;;;5016951;28;20495;-64
2023/04/20 04:45:50;;;;;;;3.28;0.63;;;8.10;99.90;;;;;;5015772;28;20037;-63
2023/04/20 04:48:15;;;;;;;4.68;0.70;;;8.20;99.90;;;;;;5022369;28;20440;-64
2023/04/20 04:50:41;;;;;;;3.40;0.63;;;8.10;99.90;;;;;;5034252;28;20318;-64
2023/04/20 04:53:07;;;;;;;4.63;0.88;;;8.10;99.90;;;;;;5007518;28;20238;-63
2023/04/20 04:55:32;;;;;;;3.72;0.50;;;8.10;1.00;;;;;;5023318;28;20426;-62
2023/04/20 04:57:58;;;;;;;2.90;0.60;;;8.10;1.00;;;;;;5006910;28;20041;-62
2023/04/20 05:00:24;;;;;;;2.72;0.45;;;8.00;1.00;;;;;;5007428;28;20048;-64
2023/04/20 05:02:52;;;;;;;4.15;0.80;;;8.00;1.00;;;;;;5028474;28;20467;-63
2023/04/20 05:05:19;;;;;;;3.05;0.40;;;8.00;61.60;;;;;;5007199;28;20810;-64
2023/04/20 05:07:45;;;;;;;1.67;0.40;;;7.90;52.70;;;;;;5041051;28;20480;-63
2023/04/20 05:10:10;;;;;;;4.25;0.60;;;7.90;74.30;;;;;;5023913;28;20191;-63
2023/04/20 05:12:36;;;;;;;3.17;0.40;;;7.80;99.90;;;;;;5007916;28;20118;-63
2023/04/20 05:15:02;;;;;;;5.70;0.65;;;7.50;99.90;;;;;;5020960;28;20116;-63
2023/04/20 05:17:28;;;;;;;4.03;0.82;;;7.30;99.90;;;;;;5009313;28;20175;-63
2023/04/20 05:19:54;;;;;;;5.20;0.95;;;7.20;99.90;;;;;;5024611;28;20420;-65
2023/04/20 05:22:20;;;;;;;2.65;0.50;;;7.30;99.90;;;;;;5014047;28;20050;-63
2023/04/20 05:24:45;;;;;;;3.22;0.52;;;7.30;99.90;;;;;;5024331;28;20704;-65
2023/04/20 05:27:11;;;;;;;2.10;0.77;;;7.40;99.90;;;;;;5021291;28;20112;-64
2023/04/20 05:29:37;;;;;;;4.28;0.75;;;7.50;99.90;;;;;;5023820;28;20033;-63
2023/04/20 05:32:03;;;;;;;4.45;0.70;;;7.50;99.90;;;;;;5027190;28;20110;-65
2023/04/20 05:34:29;;;;;;;3.08;0.60;;;7.60;99.90;;;;;;5010006;28;20038;-64
2023/04/20 05:36:58;;;;;;;4.22;0.50;;;7.60;99.90;;;;;;5016801;28;20040;-65
2023/04/20 05:39:23;;;;;;;4.15;0.50;;;7.60;99.90;;;;;;5019455;28;20594;-62
2023/04/20 05:41:49;;;;;;;2.80;0.55;;;7.60;99.90;;;;;;5046385;28;20120;-63
2023/04/20 05:44:15;;;;;;;3.67;0.60;;;7.70;99.90;;;;;;5018590;28;20499;-64
2023/04/20 05:46:41;;;;;;;2.60;0.52;;;7.60;99.90;;;;;;5020351;28;20041;-64
2023/04/20 05:49:07;;;;;;;4.88;0.82;;;7.70;85.40;;;;;;5019319;28;20629;-63
2023/04/20 05:51:33;;;;;;;2.47;0.50;;;7.70;90.50;;;;;;5012238;28;20048;-64
2023/04/20 05:54:00;;;;;;;2.28;0.43;;;7.70;70.80;;;;;;5012458;28;20044;-63
2023/04/20 05:56:26;;;;;;;1.98;0.73;;;7.70;95.50;;;;;;4999958;28;20063;-63
2023/04/20 05:58:53;;;;;;;2.72;0.50;;;7.70;99.90;;;;;;5018468;28;20240;-63
2023/04/20 06:01:19;;;;;;;0.90;0.30;;;7.60;99.90;;;;;;5031148;28;20124;-63
2023/04/20 06:03:46;;;;;;;3.80;0.70;;;7.60;98.20;;;;;;4998825;28;20355;-64
2023/04/20 06:06:11;;;;;;;1.55;0.30;;;7.50;99.90;;;;;;5019913;28;20112;-63
2023/04/20 06:08:37;;;;;;;3.35;0.73;;;7.50;99.90;;;;;;5019814;28;20048;-63
2023/04/20 06:11:03;;;;;;;3.10;0.80;;;7.40;99.90;;;;;;5012045;28;20036;-63
2023/04/20 06:13:30;;;;;;;3.63;0.65;;;7.30;99.90;;;;;;5011866;28;20144;-63
2023/04/20 06:15:55;;;;;;;1.52;0.60;;;7.40;99.90;;;;;;5030588;28;20037;-62
2023/04/20 06:18:21;;;;;;;6.05;0.40;;;7.40;99.90;;;;;;5012761;28;20109;-62
2023/04/20 06:20:47;;;;;;;2.17;0.60;;;7.50;99.90;;;;;;5019312;28;20064;-63
2023/04/20 06:23:13;;;;;;;1.58;0.40;;;7.50;99.90;;;;;;5018601;28;20045;-64
2023/04/20 06:25:39;;;;;;;3.35;0.63;;;7.40;99.90;;;;;;5020199;28;20094;-64
2023/04/20 06:28:06;;;;;;;1.52;0.22;;;7.40;99.90;;;;;;5016501;28;20033;-63
2023/04/20 06:30:32;;;;;;;3.20;0.52;;;7.40;99.90;;;;;;5016888;28;20456;-63
2023/04/20 06:33:02;;;;;;;8.90;1.00;;;7.30;99.90;;;;;;5018911;28;20144;-64
2023/04/20 06:35:27;;;;;;;2.42;0.57;;;7.30;99.90;;;;;;5036118;28;20060;-63
2023/04/20 06:37:56;;;;;;;6.03;0.68;;;7.20;99.90;;;;;;4990907;28;20044;-64
2023/04/20 06:40:25;;;;;;;4.80;1.02;;;7.20;99.90;;;;;;5017632;28;20052;-62
2023/04/20 06:42:51;;;;;;;2.60;0.45;;;7.00;99.90;;;;;;5011461;28;20072;-64
2023/04/20 06:45:17;;;;;;;4.15;0.73;;;6.90;99.90;;;;;;5017365;28;20045;-63
2023/04/20 06:47:43;;;;;;;3.22;0.73;;;6.80;99.90;;;;;;5023764;28;20553;-64
2023/04/20 06:50:08;;;;;;;9.60;1.00;;;6.80;99.90;;;;;;5015475;28;20034;-64
2023/04/20 06:52:36;;;;;;;5.05;0.98;;;6.70;99.90;;;;;;5017334;28;20664;-63
2023/04/20 06:55:02;;;;;;;4.88;0.82;;;6.60;99.90;;;;;;5019850;28;20044;-63
2023/04/20 06:57:28;;;;;;;2.50;1.23;;;6.60;99.90;;;;;;5016008;28;20044;-65
2023/04/20 06:59:54;;;;;;;5.45;1.00;;;6.50;99.90;;;;;;4995401;28;20056;-64
2023/04/20 07:02:20;;;;;;;1.05;0.57;;;6.40;1.00;;;;;;5014609;28;20518;-65
2023/04/20 07:04:45;;;;;;;2.58;1.05;;;6.40;1.00;;;;;;5015370;28;20045;-63
2023/04/20 07:07:11;;;;;;;3.90;1.27;;;6.40;1.00;;;;;;5027175;28;20495;-63
2023/04/20 07:09:37;;;;;;;5.25;1.10;;;6.40;1.00;;;;;;5016505;28;20045;-62
2023/04/20 07:12:03;;;;;;;4.03;1.67;;;6.40;1.00;;;;;;5016348;28;20400;-63
2023/04/20 07:14:28;;;;;;;3.22;1.50;;;6.40;1.00;;;;;;5014383;28;20404;-63
2023/04/20 07:16:54;;;;;;;4.45;1.45;;;6.30;1.00;;;;;;5020965;28;20064;-65
2023/04/20 07:19:20;;;;;;;3.85;1.45;;;6.40;1.00;;;;;;4999133;28;20364;-62
2023/04/20 07:21:45;;;;;;;5.82;2.17;;;6.40;1.00;;;;;;5032681;28;20052;-64
2023/04/20 07:24:11;;;;;;;4.10;1.95;;;6.40;1.00;;;;;;4997062;28;20341;-63
2023/04/20 07:26:37;;;;;;;6.38;1.95;;;6.40;1.00;;;;;;5011294;28;20517;-63
2023/04/20 07:29:03;;;;;;;6.07;1.67;;;6.40;1.00;;;;;;5017573;28;20068;-63
2023/04/20 07:31:29;;;;;;;6.13;2.00;;;6.50;1.00;;;;;;4996604;28;20369;-62
2023/04/20 07:33:55;;;;;;;3.40;1.58;;;6.50;1.00;;;;;;5014169;28;20057;-63
2023/04/20 07:36:21;;;;;;;4.32;1.95;;;6.60;1.00;;;;;;5014129;28;20052;-63
2023/04/20 07:38:50;;;;;;;4.20;1.88;;;6.60;1.00;;;;;;5017206;28;20041;-63
2023/04/20 07:41:16;;;;;;;3.22;1.25;;;6.70;1.00;;;;;;5016869;28;20075;-64
2023/04/20 07:43:43;;;;;;;2.78;1.40;;;6.80;1.00;;;;;;5003158;28;20234;-63
2023/04/20 07:46:09;;;;;;;2.88;1.98;;;6.80;1.00;;;;;;5018368;28;20126;-64
2023/04/20 07:48:36;;;;;;;4.95;1.95;;;6.80;1.00;;;;;;5009768;28;20041;-64
2023/04/20 07:51:02;;;;;;;6.97;2.92;;;6.70;1.00;;;;;;5016831;28;20037;-64
2023/04/20 07:53:30;;;;;;;4.68;1.30;;;6.70;1.00;;;;;;5015964;28;20068;-64
2023/04/20 07:55:56;;;;;;;5.43;1.80;;;6.70;1.00;;;;;;5014226;28;20527;-64
2023/04/20 07:58:22;;;;;;;4.88;1.95;;;6.70;1.00;;;;;;4995325;28;20192;-63
2023/04/20 08:00:47;;;;;;;4.35;1.75;;;6.70;1.00;;;;;;4984574;28;20557;-63
2023/04/20 08:03:14;;;;;;;2.13;1.60;;;6.70;99.90;;;;;;5002074;28;20056;-64
2023/04/20 08:05:40;;;;;;;2.97;1.48;;;6.70;1.00;;;;;;5019325;28;20157;-63
2023/04/20 08:08:06;;;;;;;3.45;2.10;;;6.80;1.00;;;;;;5009974;28;20548;-66
2023/04/20 08:10:32;;;;;;;7.03;1.98;;;6.80;1.00;;;;;;5010359;28;20242;-63
2023/04/20 08:12:58;;;;;;;3.88;1.77;;;6.80;99.90;;;;;;5013801;28;20492;-64
2023/04/20 08:15:24;;;;;;;3.70;1.40;;;6.80;99.90;;;;;;5016491;28;20123;-63
2023/04/20 08:17:51;;;;;;;4.15;1.98;;;6.80;1.00;;;;;;5008597;28;20052;-64
2023/04/20 08:20:17;;;;;;;3.55;2.08;;;6.70;1.00;;;;;;5020328;28;20045;-64
2023/04/20 08:22:43;;;;;;;8.07;2.40;;;6.70;1.00;;;;;;5034303;28;20037;-65
2023/04/20 08:25:09;;;;;;;6.93;2.50;;;6.70;1.00;;;;;;5038142;28;20974;-63
2023/04/20 08:27:34;;;;;;;5.80;2.33;;;6.70;1.00;;;;;;5007328;28;20585;-64
2023/04/20 08:30:03;;;;;;;5.45;2.42;;;6.70;1.00;;;;;;5010545;28;20502;-65
2023/04/20 08:32:28;;;;;;;6.85;2.90;;;6.70;1.00;;;;;;5044055;28;20095;-65
2023/04/20 08:34:55;;;;;;;6.05;2.33;;;6.70;1.00;;;;;;5036269;28;20212;-63
2023/04/20 08:37:20;;;;;;;7.72;2.97;;;6.70;1.00;;;;;;4998957;28;20053;-63
2023/04/20 08:39:46;;;;;;;9.57;3.00;;;6.70;1.00;;;;;;5019139;28;20041;-63
2023/04/20 08:42:12;;;;;;;5.38;2.38;;;6.80;1.00;;;;;;4996042;28;20511;-63
2023/04/20 08:44:38;;;;;;;3.97;2.47;;;6.80;20.20;;;;;;5035880;28;20526;-64
2023/04/20 08:47:03;;;;;;;5.22;2.30;;;6.80;3.20;;;;;;5014696;28;20056;-64
2023/04/20 08:49:31;;;;;;;5.05;3.08;;;7.00;34.90;;;;;;5013004;28;20084;-62
2023/04/20 08:51:57;;;;;;;5.07;2.33;;;7.20;56.00;;;;;;5015097;28;20045;-63
2023/04/20 08:54:23;;;;;;;4.35;2.67;;;7.30;76.30;;;;;;5013931;28;20429;-63
2023/04/20 08:56:48;;;;;;;5.13;2.53;;;7.40;9.60;;;;;;5021166;28;20041;-65
2023/04/20 08:59:15;;;;;;;6.60;2.70;;;7.40;1.00;;;;;;5020143;28;20087;-64
2023/04/20 09:01:43;;;;;;;5.80;3.03;;;7.50;1.00;;;;;;5009697;28;20465;-64
2023/04/20 09:04:19;;;;;;;5.50;2.55;;;7.50;1.00;;;;;;5013280;28;20049;-64
2023/04/20 09:06:46;;;;;;;5.47;2.88;;;7.50;1.00;;;;;;5013464;28;20140;-64
2023/04/20 09:09:12;;;;;;;3.53;1.55;;;7.50;1.00;;;;;;5037717;28;20048;-63
2023/04/20 09:11:39;;;;;;;6.95;2.65;;;7.50;1.00;;;;;;5032574;28;20041;-65
2023/04/20 09:14:11;;;;;;;8.60;3.35;;;7.60;1.00;;;;;;5013918;28;20056;-63
2023/04/20 09:16:46;;;;;;;5.95;3.17;;;7.70;1.00;;;;;;5030703;28;20033;-65
2023/04/20 09:19:13;;;;;;;5.43;3.35;;;7.70;99.90;;;;;;5038150;28;20116;-64
2023/04/20 09:21:49;;;;;;;6.72;3.70;;;7.80;99.90;;;;;;5035307;28;20080;-64
2023/04/20 09:24:14;;;;;;;6.13;3.22;;;7.90;99.90;;;;;;5014367;28;20036;-63
2023/04/20 09:26:40;;;;;;;9.77;3.47;;;8.00;99.90;;;;;;5017879;28;20040;-64
2023/04/20 09:29:20;;;;;;;5.95;3.33;;;8.00;99.90;;;;;;5022962;28;20746;-63
2023/04/20 09:31:47;;;;;;;6.10;4.10;;;8.00;99.90;;;;;;5031110;28;20769;-64
2023/04/20 09:34:14;;;;;;;5.78;2.20;;;8.10;99.90;;;;;;5007956;28;20438;-64
2023/04/20 09:36:45;;;;;;;8.48;3.65;;;8.10;99.90;;;;;;5030191;28;20052;-63
2023/04/20 09:39:13;;;;;;;7.35;3.72;;;8.10;99.90;;;;;;5002512;28;20073;-64
2023/04/20 09:41:40;;;;;;;8.70;4.03;;;8.20;99.90;;;;;;5020580;28;20281;-63
2023/04/20 09:44:07;;;;;;;9.02;3.78;;;8.40;99.90;;;;;;5039115;28;20067;-62
2023/04/20 09:46:35;;;;;;;8.77;4.20;;;8.50;99.90;;;;;;5013109;28;20241;-63
2023/04/20 09:49:06;;;;;;;8.45;4.25;;;8.60;99.90;;;;;;5046538;28;20037;-63
2023/04/20 09:51:34;;;;;;;6.65;3.30;;;8.60;99.90;;;;;;5006054;28;20096;-64
2023/04/20 09:54:02;;;;;;;4.40;3.08;;;8.70;99.90;;;;;;5020681;28;20124;-64
2023/04/20 09:56:29;;;;;;;8.48;3.65;;;8.70;99.90;;;;;;5004312;28;20500;-62
2023/04/20 09:58:56;;;;;;;5.63;3.22;;;8.60;99.90;;;;;;5013860;28;20059;-64
2023/04/20 10:01:22;;;;;;;5.10;2.90;;;8.60;99.90;;;;;;5029772;28;20041;-63
2023/04/20 10:03:54;;;;;;;8.48;3.70;;;8.60;99.90;;;;;;5017193;28;20134;-63
2023/04/20 10:06:22;;;;;;;7.68;3.35;;;8.50;99.90;;;;;;5018310;28;20507;-64
2023/04/20 10:08:50;;;;;;;6.55;2.67;;;8.50;99.90;;;;;;5018807;28;20033;-63
2023/04/20 10:11:30;;;;;;;6.40;3.38;;;8.50;99.90;;;;;;5017224;28;20037;-63
2023/04/20 10:13:57;;;;;;;5.75;3.28;;;8.50;99.90;;;;;;5033081;28;20123;-63
2023/04/20 10:16:23;;;;;;;5.75;2.33;;;8.50;99.90;;;;;;5032255;28;20048;-64
2023/04/20 10:19:01;;;;;;;8.43;3.78;;;8.40;99.90;;;;;;5011582;28;21319;-65
2023/04/20 10:21:33;;;;;;;5.22;2.72;;;8.30;99.90;;;;;;5003512;28;20040;-64
2023/04/20 10:24:00;;;;;;;6.95;3.78;;;8.30;99.90;;;;;;5017728;28;20292;-63
2023/04/20 10:26:40;;;;;;;6.30;2.85;;;8.30;99.90;;;;;;5013956;28;20076;-64
2023/04/20 10:29:07;;;;;;;7.47;3.60;;;8.20;99.90;;;;;;5020400;28;20041;-63
2023/04/20 10:31:37;;;;;;;8.63;3.78;;;8.20;99.90;;;;;;5019108;28;20124;-63
2023/04/20 10:34:03;;;;;;;7.90;3.90;;;8.20;99.90;;;;;;4998466;28;20060;-63
2023/04/20 10:36:31;;;;;;;7.25;3.40;;;8.20;99.90;;;;;;5017344;28;20146;-65
2023/04/20 10:38:57;;;;;;;5.78;2.58;;;8.20;99.90;;;;;;5017179;28;20331;-63
2023/04/20 10:41:23;;;;;;;6.88;3.33;;;8.20;99.90;;;;;;5012643;28;20100;-66
2023/04/20 10:43:49;;;;;;;9.02;4.05;;;8.10;99.90;;;;;;5018829;28;20099;-64
2023/04/20 10:46:20;;;;;;;6.35;2.95;;;8.00;99.90;;;;;;5018624;28;20057;-63
2023/04/20 10:48:57;;;;;;;6.85;3.67;;;8.10;99.90;;;;;;5018093;28;20361;-64
2023/04/20 10:51:24;;;;;;;10.27;4.38;;;8.10;99.90;;;;;;5020356;28;20131;-64
2023/04/20 10:53:59;;;;;;;6.47;3.90;;;8.10;99.90;;;;;;5019240;28;20151;-64
2023/04/20 10:56:26;;;;;;;6.57;3.45;;;8.10;99.90;;;;;;5021826;28;20045;-65
2023/04/20 10:58:52;;;;;;;9.60;4.75;;;8.20;1.00;;;;;;5014642;28;20123;-63
2023/04/20 11:01:18;;;;;;;8.57;5.13;;;8.30;99.90;;;;;;5015447;28;20138;-63
2023/04/20 11:03:50;;;;;;;6.13;4.47;;;8.40;1.00;;;;;;5018813;28;20296;-64
2023/04/20 11:06:17;;;;;;;7.20;4.23;;;8.50;1.00;;;;;;5019213;28;20570;-63
2023/04/20 11:08:42;;;;;;;7.38;3.97;;;8.50;99.90;;;;;;5013578;28;20518;-64
2023/04/20 11:11:28;;;;;;;9.27;4.05;;;8.40;99.90;;;;;;5007829;28;20037;-63
2023/04/20 11:14:10;;;;;;;7.93;4.85;;;8.40;99.90;;;;;;5022937;28;20803;-65
2023/04/20 11:16:36;;;;;;;7.70;4.10;;;8.40;99.90;;;;;;5031798;28;20057;-64
2023/04/20 11:19:03;;;;;;;8.13;4.32;;;8.50;99.90;;;;;;5016282;28;20522;-64
2023/04/20 11:21:40;;;;;;;6.22;3.63;;;8.80;99.90;;;;;;5015072;28;20399;-64
2023/04/20 11:24:23;;;;;;;9.60;4.60;;;9.20;99.90;;;;;;5019272;28;20542;-64
2023/04/20 11:26:52;;;;;;;5.85;3.80;;;9.60;99.90;;;;;;5042700;28;20586;-64
2023/04/20 11:29:33;;;;;;;9.68;4.35;;;9.90;99.90;;;;;;5016145;28;20778;-64
2023/04/20 11:32:05;;;;;;;7.53;3.97;;;9.80;99.90;;;;;;5014222;28;20403;-63
2023/04/20 11:34:32;;;;;;;6.88;3.45;;;9.50;99.90;;;;;;4995573;28;20163;-63
2023/04/20 11:37:07;;;;;;;7.13;3.60;;;9.40;99.90;;;;;;5033453;28;20041;-64
2023/04/20 11:39:33;;;;;;;7.15;4.78;;;9.20;99.90;;;;;;5015164;28;20088;-62
2023/04/20 11:41:59;;;;;;;8.43;4.70;;;9.00;99.90;;;;;;5009368;28;20053;-64
2023/04/20 11:44:26;;;;;;;8.00;4.93;;;9.00;99.90;;;;;;5017680;28;20036;-61
2023/04/20 11:46:53;;;;;;;7.22;4.72;;;9.10;99.90;;;;;;5018740;28;20582;-63
2023/04/20 11:49:24;;;;;;;9.05;4.85;;;9.10;99.90;;;;;;5002400;28;20095;-62
2023/04/20 11:51:50;;;;;;;7.38;4.07;;;9.20;99.90;;;;;;5035592;28;20115;-64
2023/04/20 11:54:17;;;;;;;6.38;4.68;;;9.30;99.90;;;;;;5016292;28;20049;-62
2023/04/20 11:56:44;;;;;;;7.45;4.28;;;9.30;99.90;;;;;;4996676;28;20132;-62
2023/04/20 11:59:10;;;;;;;4.97;3.03;;;9.20;99.90;;;;;;5015932;28;20519;-64
2023/04/20 12:01:36;;;;;;;9.43;5.10;;;9.10;99.90;;;;;;5001384;28;20045;-62
2023/04/20 12:04:05;;;;;;;6.07;4.22;;;9.10;99.90;;;;;;5015338;28;20042;-62
2023/04/20 12:06:32;;;;;;;8.18;5.07;;;9.00;99.90;;;;;;5017974;28;20357;-64
2023/04/20 12:08:58;;;;;;;7.13;4.80;;;9.10;99.90;;;;;;5020187;28;20033;-63
2023/04/20 12:11:24;;;;;;;8.48;5.20;;;9.10;99.90;;;;;;5013652;28;20522;-63
2023/04/20 12:13:50;;;;;;;6.50;3.72;;;9.00;99.90;;;;;;5013395;28;20348;-64
2023/04/20 12:16:16;;;;;;;5.18;4.45;;;9.00;99.90;;;;;;5015214;28;20053;-62
2023/04/20 12:18:42;;;;;;;8.25;5.50;;;9.00;99.90;;;;;;5015100;28;20450;-63
2023/04/20 12:21:07;;;;;;;7.28;5.30;;;9.00;99.90;;;;;;5013859;28;20041;-63
2023/04/20 12:23:35;;;;;;;6.57;5.50;;;9.00;99.90;;;;;;5014682;28;20060;-63
2023/04/20 12:26:02;;;;;;;8.30;5.72;;;9.00;99.90;;;;;;5014469;28;20749;-64
2023/04/20 12:28:28;;;;;;;10.07;5.65;;;9.20;99.90;;;;;;5012747;28;20057;-64
2023/04/20 12:30:54;;;;;;;7.82;5.40;;;9.40;99.90;;;;;;5015363;28;20037;-63
2023/04/20 12:33:20;;;;;;;7.68;4.53;;;9.80;99.90;;;;;;5017618;28;20067;-63
2023/04/20 12:35:45;;;;;;;7.97;5.85;;;10.10;99.90;;;;;;5029831;28;20433;-65
2023/04/20 12:38:11;;;;;;;7.95;5.15;;;10.30;99.90;;;;;;5028214;28;20043;-63
2023/04/20 12:40:37;;;;;;;4.93;4.05;;;10.70;99.90;;;;;;5017395;28;20034;-65
2023/04/20 12:43:03;;;;;;;7.30;4.70;;;11.10;99.90;;;;;;5012882;28;20539;-64
2023/04/20 12:45:28;;;;;;;6.57;4.82;;;11.50;99.90;;;;;;5000006;28;20045;-63
2023/04/20 12:47:54;;;;;;;5.50;4.47;;;11.60;99.90;;;;;;5003777;28;20040;-61
2023/04/20 12:50:20;;;;;;;5.22;3.03;;;11.60;99.90;;;;;;5027895;28;20103;-63
2023/04/20 12:52:46;;;;;;;6.38;4.60;;;11.50;99.90;;;;;;5038185;28;20437;-63
2023/04/20 12:55:13;;;;;;;5.03;3.95;;;11.20;99.90;;;;;;5023317;28;20408;-64